Friday, July 20, 2018, 8:16 PM EDT
Back to Local

KRDG, Reading Regional Airport

Location: Reading, PA, United States Lat: 40.367
Local Time: 8:16 PM EDT ( 0:16 GMT) Lon: -75.967
Time Zone: US/Eastern Elev: 344 ft

Show me the last for .
Show Decoded

2018-07-20 19:54 METAR KRDG 202354Z 14008KT 10SM FEW060 26/17 A3005 RMK AO2 SLP177 T02560172
                 10294 20256 55004 =
2018-07-20 18:54 METAR KRDG 202254Z 16008KT 10SM CLR 27/17 A3004 RMK AO2 SLP174 T02670167 =
2018-07-20 17:54 METAR KRDG 202154Z 12006KT 10SM SCT060 28/14 A3004 RMK AO2 SLP176 T02780144 =
2018-07-20 16:54 METAR KRDG 202054Z 14007G15KT 10SM SCT060 28/15 A3006 RMK AO2 SLP181 T02780150
                 56016 =
2018-07-20 15:54 METAR KRDG 201954Z 15010KT 10SM SCT060 29/16 A3007 RMK AO2 SLP184 T02890156 =
2018-07-20 14:54 METAR KRDG 201854Z 16011G16KT 10SM FEW060 29/16 A3009 RMK AO2 SLP191 T02940161 =
2018-07-20 13:54 METAR KRDG 201754Z 13007KT 10SM SCT060 29/16 A3011 RMK AO2 SLP197 T02890156
                 10289 20194 58010 =
2018-07-20 12:54 METAR KRDG 201654Z 14008KT 10SM FEW055 29/16 A3012 RMK AO2 SLP200 T02890161 =
2018-07-20 11:54 METAR KRDG 201554Z 14008KT 10SM FEW047 SCT055 27/17 A3013 RMK AO2 SLP204
                 T02720172 =
2018-07-20 10:54 METAR KRDG 201454Z 10SM CLR 26/19 A3014 RMK AO2 SLP207 T02610189 58002 =
2018-07-20 09:54 METAR KRDG 201354Z 00000KT 10SM CLR 24/18 A3014 RMK AO2 SLP209 T02440183 =
2018-07-20 08:54 METAR KRDG 201254Z 00000KT 10SM CLR 22/18 A3014 RMK AO2 SLP209 T02220183 =
2018-07-20 07:54 METAR KRDG 201154Z 00000KT 10SM CLR 19/17 A3014 RMK AO2 SLP209 T01940172 10194
                 20161 53008 =
2018-07-20 06:54 METAR KRDG 201054Z 36003KT 10SM CLR 17/16 A3013 RMK AO2 SLP206 T01670161 =
2018-07-20 05:54 METAR KRDG 200954Z 01003KT 10SM CLR 16/16 A3012 RMK AO2 SLP202 T01610156 =
2018-07-20 04:54 METAR KRDG 200854Z 00000KT 10SM CLR 17/16 A3012 RMK AO2 SLP201 T01670156 53002 =
2018-07-20 03:54 METAR KRDG 200754Z 34003KT 10SM CLR 17/16 A3011 RMK AO2 SLP197 T01720156 =
2018-07-20 02:54 METAR KRDG 200654Z 00000KT 10SM CLR 18/16 A3011 RMK AO2 SLP198 T01780156 =
2018-07-20 01:54 METAR KRDG 200554Z 18003KT 10SM CLR 19/16 A3011 RMK AO2 SLP199 T01940156 10261
                 20178 50008 =
2018-07-20 00:54 METAR KRDG 200454Z 17004KT 10SM CLR 19/15 A3011 RMK AO2 SLP200 T01890150
                 402890139 =
2018-07-19 23:54 METAR KRDG 200354Z VRB03KT 10SM CLR 18/17 A3010 RMK AO2 SLP197 T01830167 =
2018-07-19 22:54 METAR KRDG 200254Z 00000KT 10SM CLR 21/16 A3009 RMK AO2 SLP191 T02060161 51015 =
2018-07-19 21:54 METAR KRDG 200154Z 00000KT 10SM CLR 21/16 A3008 RMK AO2 SLP189 T02060161 =
2018-07-19 20:54 METAR KRDG 200054Z 00000KT 10SM CLR 25/13 A3007 RMK AO2 SLP183 T02500128 =

Support USWX by starting your Amazon purchase here.